Time;durP1;ratioP1;P1;durP2;ratioP2;P2;SDS_P1;SDS_P2;PMS_P1;PMS_P2;Temp;Humidity;BMP_temperature;BMP_pressure;BME280_temperature;BME280_humidity;BME280_pressure;Samples;Min_cycle;Max_cycle;Signal;HPM_P1;HPM_P2
2021/12/16 00:08:51;;;;;;;17.73;8.65;;;3.80;99.90;;;;;;4950295;28;20035;-66
2021/12/16 00:31:03;;;;;;;16.52;7.93;;;3.90;99.90;;;;;;4939458;28;21021;-67
2021/12/16 00:35:40;;;;;;;14.70;8.68;;;4.00;99.90;;;;;;4946669;28;20039;-66
2021/12/16 00:38:05;;;;;;;15.20;8.85;;;4.00;99.90;;;;;;4951879;28;20035;-66
2021/12/16 00:40:32;;;;;;;13.05;7.57;;;4.00;99.90;;;;;;4953308;28;20043;-66
2021/12/16 00:43:10;;;;;;;14.45;8.27;;;4.00;99.90;;;;;;4931713;28;20035;-66
2021/12/16 00:56:08;;;;;;;17.27;9.20;;;3.80;99.90;;;;;;4939018;28;20038;-66
2021/12/16 00:58:46;;;;;;;12.82;7.13;;;3.80;99.90;;;;;;4937903;28;20066;-66
2021/12/16 01:04:12;;;;;;;16.13;8.82;;;3.70;99.90;;;;;;4950018;28;20059;-66
2021/12/16 01:06:53;;;;;;;14.57;8.35;;;3.80;99.90;;;;;;4940436;28;20491;-66
2021/12/16 01:47:44;;;;;;;15.25;8.43;;;3.90;99.90;;;;;;4972200;28;19921;-66
2021/12/16 01:50:14;;;;;;;10.85;7.35;;;3.90;99.90;;;;;;4961987;28;20034;-66
2021/12/16 01:55:41;;;;;;;11.00;6.75;;;4.00;99.90;;;;;;4970682;28;20038;-66
2021/12/16 01:58:15;;;;;;;12.02;6.95;;;4.00;99.90;;;;;;4974894;28;20679;-66
2021/12/16 02:00:54;;;;;;;11.27;6.82;;;4.00;99.90;;;;;;4971085;28;20038;-67
2021/12/16 02:03:27;;;;;;;10.82;6.90;;;4.00;99.90;;;;;;4951202;28;20124;-67
2021/12/16 02:06:14;;;;;;;14.07;7.65;;;4.00;99.90;;;;;;4949495;28;20677;-67
2021/12/16 02:08:40;;;;;;;11.88;6.65;;;4.00;99.90;;;;;;4946493;28;20031;-67
2021/12/16 02:11:54;;;;;;;10.55;7.57;;;4.00;99.90;;;;;;4953279;28;20739;-67
2021/12/16 02:37:52;;;;;;;9.73;5.32;;;4.00;99.90;;;;;;4958963;28;20042;-67
2021/12/16 02:40:18;;;;;;;8.52;5.43;;;4.00;99.90;;;;;;4956739;28;20045;-67
2021/12/16 02:42:59;;;;;;;6.72;4.03;;;4.00;99.90;;;;;;4959804;28;20033;-67
2021/12/16 02:48:38;;;;;;;7.43;4.47;;;3.90;99.90;;;;;;4879507;29;20052;-67
2021/12/16 02:51:14;;;;;;;6.07;3.78;;;3.90;99.90;;;;;;4879063;29;21784;-68
2021/12/16 02:53:52;;;;;;;4.10;2.90;;;3.80;99.90;;;;;;4926012;28;20054;-67
2021/12/16 02:56:18;;;;;;;5.63;3.60;;;3.80;99.90;;;;;;4970399;28;20034;-67
2021/12/16 02:58:48;;;;;;;5.90;4.03;;;3.80;99.90;;;;;;4958904;28;20035;-67
2021/12/16 03:01:28;;;;;;;3.58;2.60;;;3.70;99.90;;;;;;4965583;28;20146;-67
2021/12/16 03:03:55;;;;;;;2.70;2.50;;;3.70;99.90;;;;;;4964584;28;20486;-67
2021/12/16 03:06:20;;;;;;;3.00;2.67;;;3.70;99.90;;;;;;4972886;28;20069;-67
2021/12/16 03:08:48;;;;;;;5.30;3.83;;;3.70;99.90;;;;;;4966250;28;20050;-67
2021/12/16 03:16:42;;;;;;;4.68;3.60;;;3.60;99.90;;;;;;4962397;28;20479;-67
2021/12/16 03:21:41;;;;;;;4.43;3.65;;;3.60;99.90;;;;;;4986379;28;20022;-67
2021/12/16 03:37:19;;;;;;;5.18;2.80;;;3.50;99.90;;;;;;4967671;28;20465;-67
2021/12/16 03:39:53;;;;;;;7.68;4.65;;;3.50;99.90;;;;;;4967347;28;20031;-67
2021/12/16 03:42:30;;;;;;;5.13;4.00;;;3.50;99.90;;;;;;4966549;28;20109;-67
2021/12/16 03:45:05;;;;;;;7.68;4.70;;;3.50;99.90;;;;;;4966032;28;20022;-67
2021/12/16 03:47:44;;;;;;;5.03;4.00;;;3.50;99.90;;;;;;4961566;28;20042;-67
2021/12/16 03:50:15;;;;;;;6.70;4.15;;;3.50;99.90;;;;;;4967442;28;20038;-67
2021/12/16 03:52:42;;;;;;;8.80;6.10;;;3.50;99.90;;;;;;4967052;28;20066;-67
2021/12/16 03:55:09;;;;;;;13.90;7.60;;;3.50;99.90;;;;;;4962756;28;20039;-67
2021/12/16 03:57:35;;;;;;;10.02;5.97;;;3.50;99.90;;;;;;4965464;28;20038;-67
2021/12/16 04:00:03;;;;;;;12.18;7.15;;;3.60;99.90;;;;;;4972280;28;20121;-67
2021/12/16 04:02:33;;;;;;;14.82;8.52;;;3.60;99.90;;;;;;4967753;28;20054;-67
2021/12/16 04:05:00;;;;;;;13.27;7.13;;;3.60;99.90;;;;;;4969191;28;20137;-67
2021/12/16 04:07:30;;;;;;;12.30;7.20;;;3.50;99.90;;;;;;4973205;28;20030;-67
2021/12/16 04:09:56;;;;;;;12.48;7.20;;;3.50;99.90;;;;;;4970851;28;20030;-67
2021/12/16 04:12:24;;;;;;;11.80;6.53;;;3.50;99.90;;;;;;4976317;28;20110;-67
2021/12/16 04:14:54;;;;;;;14.15;7.88;;;3.50;99.90;;;;;;4963478;28;20031;-67
2021/12/16 04:17:23;;;;;;;11.85;7.00;;;3.60;99.90;;;;;;4971321;28;20478;-67
2021/12/16 04:19:50;;;;;;;13.05;7.75;;;3.60;99.90;;;;;;4977501;28;20030;-67
2021/12/16 04:22:29;;;;;;;11.60;5.75;;;3.60;99.90;;;;;;4970348;28;20058;-67
2021/12/16 04:24:56;;;;;;;10.75;6.82;;;3.60;99.90;;;;;;4968301;28;20035;-67
2021/12/16 04:27:22;;;;;;;8.07;5.85;;;3.60;99.90;;;;;;4969551;28;20073;-67
2021/12/16 04:29:48;;;;;;;8.73;5.18;;;3.60;99.90;;;;;;4974708;28;20528;-67
2021/12/16 04:32:15;;;;;;;7.93;4.93;;;3.60;99.90;;;;;;4974149;28;20377;-66
2021/12/16 04:34:41;;;;;;;9.20;5.45;;;3.60;99.90;;;;;;4969825;28;20038;-67
2021/12/16 04:37:07;;;;;;;10.18;6.38;;;3.60;99.90;;;;;;4973142;28;20085;-67
2021/12/16 04:39:36;;;;;;;10.27;5.70;;;3.60;99.90;;;;;;4970691;28;20027;-66
2021/12/16 04:42:04;;;;;;;9.57;6.03;;;3.60;99.90;;;;;;4967758;28;20035;-67
2021/12/16 04:44:30;;;;;;;10.23;6.30;;;3.60;99.90;;;;;;4969619;28;20089;-67
2021/12/16 04:46:58;;;;;;;8.15;5.55;;;3.60;99.90;;;;;;4968001;28;20197;-67
2021/12/16 04:49:24;;;;;;;10.82;6.68;;;3.60;99.90;;;;;;4970294;28;20043;-67
2021/12/16 04:51:53;;;;;;;7.43;5.45;;;3.60;99.90;;;;;;4969005;28;20046;-67
2021/12/16 04:54:23;;;;;;;9.38;6.25;;;3.60;99.90;;;;;;4971598;28;20039;-67
2021/12/16 04:56:49;;;;;;;11.18;6.65;;;3.50;99.90;;;;;;4969496;28;20121;-67
2021/12/16 04:59:17;;;;;;;9.60;5.95;;;3.50;99.90;;;;;;4971451;28;20065;-67
2021/12/16 05:01:45;;;;;;;11.23;6.80;;;3.60;99.90;;;;;;4974045;28;20117;-67
2021/12/16 05:04:11;;;;;;;;;;;3.60;99.90;;;;;;4969407;28;20129;-67
2021/12/16 05:06:37;;;;;;;12.32;6.50;;;3.60;99.90;;;;;;4969695;28;20004;-67
2021/12/16 05:09:05;;;;;;;11.13;6.30;;;3.70;99.90;;;;;;4970641;28;20466;-67
2021/12/16 05:11:33;;;;;;;14.17;7.53;;;3.70;99.90;;;;;;4964339;28;20803;-67
2021/12/16 05:14:00;;;;;;;11.73;7.18;;;3.70;99.90;;;;;;4965012;28;20285;-67
2021/12/16 05:16:25;;;;;;;9.65;6.32;;;3.70;99.90;;;;;;4968804;28;20031;-67
2021/12/16 05:18:53;;;;;;;8.38;5.70;;;3.70;99.90;;;;;;4973712;28;20053;-67
2021/12/16 05:24:16;;;;;;;9.25;5.97;;;3.70;99.90;;;;;;4969781;28;20113;-67
2021/12/16 05:26:42;;;;;;;14.93;6.95;;;3.60;99.90;;;;;;4969747;28;20032;-67
2021/12/16 05:29:07;;;;;;;9.57;5.93;;;3.70;99.90;;;;;;4970036;28;20404;-67
2021/12/16 05:31:33;;;;;;;12.70;6.95;;;3.60;99.90;;;;;;4975307;28;20112;-67
2021/12/16 05:34:00;;;;;;;12.18;6.85;;;3.60;99.90;;;;;;4969047;28;20505;-67
2021/12/16 05:36:26;;;;;;;11.00;6.03;;;3.60;99.90;;;;;;4968247;28;20077;-67
2021/12/16 05:38:52;;;;;;;12.90;7.38;;;3.60;99.90;;;;;;4964175;28;20121;-67
2021/12/16 05:41:21;;;;;;;14.05;6.70;;;3.60;99.90;;;;;;4967975;28;20034;-67
2021/12/16 05:43:47;;;;;;;14.25;7.68;;;3.60;99.90;;;;;;4968418;28;20038;-67
2021/12/16 05:46:17;;;;;;;13.77;6.13;;;3.60;99.90;;;;;;4969967;28;20138;-67
2021/12/16 05:48:45;;;;;;;12.32;7.25;;;3.60;99.90;;;;;;4966483;28;20117;-67
2021/12/16 05:51:21;;;;;;;16.33;7.27;;;3.60;99.90;;;;;;4966205;28;20072;-67
2021/12/16 05:53:49;;;;;;;14.93;7.00;;;3.50;99.90;;;;;;4962236;28;20295;-67
2021/12/16 05:56:14;;;;;;;13.18;7.22;;;3.50;99.90;;;;;;4972844;28;20039;-67
2021/12/16 05:58:41;;;;;;;15.10;7.45;;;3.50;99.90;;;;;;4966210;28;20093;-67
2021/12/16 06:01:14;;;;;;;12.45;6.88;;;3.50;99.90;;;;;;4966055;28;20043;-67
2021/12/16 06:03:41;;;;;;;15.20;6.60;;;3.50;99.90;;;;;;4971915;28;20487;-67
2021/12/16 06:06:07;;;;;;;16.83;7.53;;;3.50;99.90;;;;;;4974158;28;20049;-67
2021/12/16 06:08:33;;;;;;;14.07;7.43;;;3.50;99.90;;;;;;4974364;28;20077;-67
2021/12/16 06:13:33;;;;;;;18.45;7.30;;;3.50;99.90;;;;;;4970738;28;20035;-67
2021/12/16 06:27:06;;;;;;;12.20;6.97;;;3.50;99.90;;;;;;4973964;28;20122;-67
2021/12/16 06:29:33;;;;;;;15.07;7.22;;;3.50;99.90;;;;;;4970406;28;20042;-67
2021/12/16 06:31:59;;;;;;;14.82;7.72;;;3.50;99.90;;;;;;4967039;28;20047;-67
2021/12/16 06:34:24;;;;;;;12.48;6.45;;;3.50;99.90;;;;;;4971585;28;20489;-67
2021/12/16 06:36:50;;;;;;;12.35;7.38;;;3.50;99.90;;;;;;4968970;28;20034;-67
2021/12/16 06:39:16;;;;;;;10.93;6.18;;;3.50;99.90;;;;;;4974136;28;20116;-67
2021/12/16 06:41:42;;;;;;;13.88;7.45;;;3.50;99.90;;;;;;4964469;28;20031;-67
2021/12/16 06:44:28;;;;;;;11.73;6.43;;;3.40;99.90;;;;;;4972307;28;20031;-67
2021/12/16 06:47:00;;;;;;;11.80;6.15;;;3.40;99.90;;;;;;4969299;28;20110;-67
2021/12/16 06:49:27;;;;;;;10.82;5.70;;;3.50;99.90;;;;;;4976195;28;20042;-67
2021/12/16 06:51:57;;;;;;;11.43;5.75;;;3.50;99.90;;;;;;4969042;28;20049;-67
2021/12/16 06:54:29;;;;;;;9.98;5.80;;;3.40;99.90;;;;;;4965410;28;20035;-67
2021/12/16 06:57:17;;;;;;;7.53;4.45;;;3.40;99.90;;;;;;4963023;28;20062;-67
2021/12/16 06:59:53;;;;;;;8.82;5.22;;;3.50;99.90;;;;;;4971642;28;20037;-67
2021/12/16 07:02:40;;;;;;;10.90;5.68;;;3.50;99.90;;;;;;4963837;28;20054;-67
2021/12/16 07:05:07;;;;;;;13.70;5.80;;;3.50;99.90;;;;;;4962332;28;20040;-67
2021/12/16 07:07:33;;;;;;;11.68;5.75;;;3.50;99.90;;;;;;4958784;28;20034;-67
2021/12/16 07:09:59;;;;;;;14.98;7.00;;;3.50;99.90;;;;;;4972937;28;20039;-67
2021/12/16 07:12:35;;;;;;;10.82;6.40;;;3.50;99.90;;;;;;4969324;28;20030;-67
2021/12/16 07:15:04;;;;;;;11.98;5.22;;;3.40;99.90;;;;;;4967579;28;20097;-67
2021/12/16 07:17:31;;;;;;;9.57;5.68;;;3.40;99.90;;;;;;4962889;28;20462;-68
2021/12/16 07:19:56;;;;;;;11.27;6.15;;;3.40;99.90;;;;;;4965770;28;20142;-68
2021/12/16 07:22:22;;;;;;;11.75;4.85;;;3.40;99.90;;;;;;4963211;28;20035;-68
2021/12/16 07:24:47;;;;;;;9.35;5.28;;;3.40;99.90;;;;;;4965851;28;20156;-68
2021/12/16 07:27:13;;;;;;;10.60;5.30;;;3.40;99.90;;;;;;4965127;28;20122;-68
2021/12/16 07:29:39;;;;;;;8.57;4.53;;;3.40;99.90;;;;;;4964084;28;20045;-68
2021/12/16 07:32:05;;;;;;;8.98;4.25;;;3.40;99.90;;;;;;4961152;28;20169;-68
2021/12/16 07:34:31;;;;;;;8.93;4.68;;;3.40;99.90;;;;;;4963768;28;20501;-68
2021/12/16 07:36:59;;;;;;;8.70;4.88;;;3.40;99.90;;;;;;4964349;28;20038;-68
2021/12/16 07:39:30;;;;;;;7.68;4.78;;;3.40;99.90;;;;;;4963277;28;20030;-67
2021/12/16 07:41:57;;;;;;;8.13;4.55;;;3.40;99.90;;;;;;4965428;28;20034;-66
2021/12/16 07:44:24;;;;;;;8.77;4.70;;;3.40;99.90;;;;;;4960752;28;20030;-67
2021/12/16 07:46:53;;;;;;;10.43;5.75;;;3.40;99.90;;;;;;4963288;28;20551;-68
2021/12/16 07:49:32;;;;;;;12.23;5.13;;;3.50;99.90;;;;;;4965428;28;20126;-68
2021/12/16 07:51:59;;;;;;;9.68;5.55;;;3.50;99.90;;;;;;4961826;28;20047;-67
2021/12/16 07:54:27;;;;;;;12.43;4.82;;;3.50;99.90;;;;;;4970093;28;20034;-67
2021/12/16 07:56:55;;;;;;;12.93;5.53;;;3.40;99.90;;;;;;4966232;28;20042;-67
2021/12/16 07:59:22;;;;;;;8.45;4.47;;;3.50;99.90;;;;;;4959931;28;20037;-68
2021/12/16 08:01:48;;;;;;;9.60;4.45;;;3.50;99.90;;;;;;4970133;28;20462;-68
2021/12/16 08:04:20;;;;;;;8.48;4.78;;;3.50;99.90;;;;;;4969217;28;20089;-68
2021/12/16 08:06:48;;;;;;;7.35;5.05;;;3.50;99.90;;;;;;4969427;28;20030;-68
2021/12/16 08:09:14;;;;;;;7.67;4.83;;;3.50;99.90;;;;;;4967054;28;20030;-68
2021/12/16 08:11:41;;;;;;;10.57;5.18;;;3.50;99.90;;;;;;4966584;28;20340;-67
2021/12/16 08:14:08;;;;;;;10.25;5.68;;;3.50;99.90;;;;;;4972066;28;20478;-68
2021/12/16 08:16:34;;;;;;;13.90;6.40;;;3.50;99.90;;;;;;4970213;28;20034;-68
2021/12/16 08:19:00;;;;;;;11.02;5.78;;;3.60;99.90;;;;;;4970991;28;20026;-68
2021/12/16 08:21:29;;;;;;;13.18;5.53;;;3.60;99.90;;;;;;4973397;28;20059;-67
2021/12/16 08:24:00;;;;;;;10.82;5.63;;;3.60;99.90;;;;;;4971930;28;20437;-68
2021/12/16 08:26:27;;;;;;;10.65;6.10;;;3.60;99.90;;;;;;4967997;28;20262;-68
2021/12/16 08:28:54;;;;;;;10.13;6.00;;;3.60;99.90;;;;;;4967551;28;20089;-68
2021/12/16 08:31:20;;;;;;;9.02;5.93;;;3.60;99.90;;;;;;4964767;28;20042;-68
2021/12/16 08:33:47;;;;;;;10.52;5.20;;;3.60;99.90;;;;;;4969113;28;20045;-68
2021/12/16 08:36:14;;;;;;;14.48;7.07;;;3.70;99.90;;;;;;4969711;28;20105;-69
2021/12/16 08:38:40;;;;;;;11.90;6.60;;;3.70;99.90;;;;;;4961860;28;20070;-67
2021/12/16 08:41:28;;;;;;;12.00;6.55;;;3.60;99.90;;;;;;4963690;28;20783;-66
2021/12/16 08:43:54;;;;;;;15.20;7.10;;;3.70;99.90;;;;;;4963719;28;20042;-66
2021/12/16 08:46:25;;;;;;;15.27;7.05;;;3.70;99.90;;;;;;4963845;28;20034;-66
2021/12/16 08:48:51;;;;;;;12.88;6.60;;;3.60;99.90;;;;;;4967727;28;20405;-66
2021/12/16 08:51:21;;;;;;;12.80;5.90;;;3.70;99.90;;;;;;4974805;28;20030;-66
2021/12/16 08:53:48;;;;;;;10.80;5.68;;;3.70;99.90;;;;;;4971132;28;20105;-67
2021/12/16 08:56:13;;;;;;;15.88;6.90;;;3.70;99.90;;;;;;4970694;28;21237;-66
2021/12/16 08:58:40;;;;;;;10.90;6.03;;;3.70;99.90;;;;;;4958961;28;20038;-66
2021/12/16 09:01:17;;;;;;;16.02;6.32;;;3.70;99.90;;;;;;4969819;28;20454;-66
2021/12/16 09:03:43;;;;;;;10.25;5.75;;;3.80;99.90;;;;;;4970470;28;20080;-68
2021/12/16 09:06:09;;;;;;;10.73;5.85;;;3.80;99.90;;;;;;4969452;28;20065;-68
2021/12/16 09:08:35;;;;;;;9.85;5.82;;;3.80;99.90;;;;;;4973569;28;20038;-68
2021/12/16 09:11:04;;;;;;;11.45;5.82;;;3.80;99.90;;;;;;4968932;28;20473;-68
2021/12/16 09:13:31;;;;;;;10.35;6.07;;;3.80;99.90;;;;;;4971586;28;20093;-68
2021/12/16 09:16:00;;;;;;;11.70;6.18;;;3.90;99.90;;;;;;4968680;28;20043;-68
2021/12/16 09:18:29;;;;;;;10.52;5.55;;;3.90;99.90;;;;;;4970479;28;20043;-68
2021/12/16 09:20:57;;;;;;;11.65;4.97;;;3.90;99.90;;;;;;4954516;28;20031;-68
2021/12/16 09:23:23;;;;;;;13.07;6.50;;;3.90;99.90;;;;;;4968416;28;20073;-68
2021/12/16 09:25:49;;;;;;;11.05;5.80;;;4.00;99.90;;;;;;4968576;28;20042;-68
2021/12/16 09:28:17;;;;;;;16.98;11.40;;;4.00;99.90;;;;;;4965108;28;20042;-68
2021/12/16 09:30:44;;;;;;;12.15;7.07;;;4.00;99.90;;;;;;4972679;28;20406;-68
2021/12/16 09:33:16;;;;;;;11.15;5.68;;;4.00;99.90;;;;;;4975898;28;20094;-68
2021/12/16 09:35:47;;;;;;;13.98;6.60;;;4.00;99.90;;;;;;4975737;28;20084;-68
2021/12/16 09:38:15;;;;;;;13.57;6.07;;;4.10;99.90;;;;;;4973457;28;20074;-68
2021/12/16 09:40:48;;;;;;;11.15;6.00;;;4.10;99.90;;;;;;4971381;28;20034;-68
2021/12/16 09:43:15;;;;;;;10.20;5.72;;;4.10;99.90;;;;;;4969215;28;20360;-68
2021/12/16 09:45:40;;;;;;;10.90;6.28;;;4.10;99.90;;;;;;4975895;28;20114;-68
2021/12/16 09:48:06;;;;;;;11.60;5.30;;;4.10;99.90;;;;;;4973503;28;20033;-68
2021/12/16 09:50:33;;;;;;;10.30;5.53;;;4.10;99.90;;;;;;4970222;28;20078;-68
2021/12/16 09:52:59;;;;;;;10.00;5.53;;;4.20;99.90;;;;;;4977245;28;20053;-68
2021/12/16 09:55:26;;;;;;;11.55;6.22;;;4.20;99.90;;;;;;4967827;28;20065;-68
2021/12/16 09:57:52;;;;;;;9.50;5.35;;;4.20;99.90;;;;;;4974417;28;20118;-68
2021/12/16 10:00:23;;;;;;;12.07;5.55;;;4.20;99.90;;;;;;4973487;28;20430;-69
2021/12/16 10:02:50;;;;;;;8.30;4.97;;;4.20;99.90;;;;;;4952578;28;20043;-68
2021/12/16 10:05:16;;;;;;;9.43;4.80;;;4.20;99.90;;;;;;4957092;28;20031;-68
2021/12/16 10:07:42;;;;;;;13.73;6.00;;;4.10;99.90;;;;;;4936982;28;20039;-68
2021/12/16 10:10:15;;;;;;;9.10;4.97;;;4.10;99.90;;;;;;4952386;28;20065;-68
2021/12/16 10:12:44;;;;;;;8.68;5.15;;;4.10;99.90;;;;;;4951113;28;20034;-68
2021/12/16 10:18:04;;;;;;;9.43;5.38;;;4.10;99.90;;;;;;4909316;28;20097;-68
2021/12/16 10:20:33;;;;;;;12.93;5.82;;;4.10;99.90;;;;;;4952177;28;20482;-68
2021/12/16 10:23:07;;;;;;;10.75;5.25;;;4.10;99.90;;;;;;4954806;28;20440;-70
2021/12/16 10:25:38;;;;;;;11.88;5.72;;;4.10;99.90;;;;;;4959075;28;20058;-68
2021/12/16 10:28:14;;;;;;;11.00;5.78;;;4.20;99.90;;;;;;4951733;28;20399;-68
2021/12/16 10:30:45;;;;;;;10.07;5.70;;;4.10;99.90;;;;;;4952651;28;20079;-68
2021/12/16 10:33:42;;;;;;;10.60;6.03;;;4.20;99.90;;;;;;4952135;28;20039;-68
2021/12/16 10:36:21;;;;;;;12.35;6.03;;;4.20;99.90;;;;;;4944801;28;20062;-68
2021/12/16 10:38:55;;;;;;;11.10;6.32;;;4.20;99.90;;;;;;4947504;28;20062;-68
2021/12/16 10:41:27;;;;;;;10.35;5.03;;;4.20;99.90;;;;;;4955695;28;20493;-68
2021/12/16 10:44:17;;;;;;;10.13;5.60;;;4.10;99.90;;;;;;4948554;28;20077;-68
2021/12/16 10:46:44;;;;;;;13.10;6.03;;;4.20;99.90;;;;;;4952808;28;20560;-68
2021/12/16 10:49:16;;;;;;;11.45;7.05;;;4.20;99.90;;;;;;4951036;28;20047;-68
2021/12/16 10:51:54;;;;;;;12.23;6.88;;;4.20;99.90;;;;;;4954137;28;20035;-68
2021/12/16 10:54:31;;;;;;;9.75;5.32;;;4.30;99.90;;;;;;4948452;28;20129;-68
2021/12/16 10:57:09;;;;;;;12.00;6.63;;;4.30;99.90;;;;;;4951558;28;20039;-68
2021/12/16 10:59:44;;;;;;;12.80;6.28;;;4.30;99.90;;;;;;4951332;28;20454;-68
2021/12/16 11:02:18;;;;;;;8.63;5.43;;;4.30;99.90;;;;;;4968107;28;20374;-68
2021/12/16 11:04:47;;;;;;;12.05;5.93;;;4.30;99.90;;;;;;4972373;28;20041;-68
2021/12/16 11:07:35;;;;;;;14.02;6.13;;;4.30;99.90;;;;;;4963357;28;20027;-68
2021/12/16 11:10:13;;;;;;;10.50;5.50;;;4.30;99.90;;;;;;4967439;28;20074;-68
2021/12/16 11:12:52;;;;;;;10.82;5.70;;;4.40;99.90;;;;;;4970811;28;20042;-69
2021/12/16 11:15:36;;;;;;;9.00;5.00;;;4.30;99.90;;;;;;4970051;28;20109;-68
2021/12/16 11:18:05;;;;;;;10.63;5.78;;;4.30;99.90;;;;;;4973302;28;20531;-69
2021/12/16 11:20:43;;;;;;;7.13;4.57;;;4.30;99.90;;;;;;4965922;28;20031;-68
2021/12/16 11:23:22;;;;;;;10.20;5.90;;;4.40;99.90;;;;;;4972671;28;20444;-68
2021/12/16 11:26:10;;;;;;;9.00;4.88;;;4.40;99.90;;;;;;4969414;28;20041;-68
2021/12/16 11:28:45;;;;;;;9.57;5.22;;;4.30;99.90;;;;;;4967137;28;20090;-68
2021/12/16 11:31:17;;;;;;;10.13;5.68;;;4.40;99.90;;;;;;4973407;28;20733;-68
2021/12/16 11:33:48;;;;;;;11.55;5.18;;;4.30;99.90;;;;;;4972162;28;20038;-69
2021/12/16 11:36:27;;;;;;;10.55;5.25;;;4.30;99.90;;;;;;4973319;28;20038;-68
2021/12/16 11:39:06;;;;;;;10.13;5.20;;;4.30;99.90;;;;;;4969896;28;20082;-68
2021/12/16 11:41:35;;;;;;;10.63;5.05;;;4.30;99.90;;;;;;4969780;28;20068;-68
2021/12/16 11:44:10;;;;;;;10.75;5.97;;;4.40;99.90;;;;;;4970592;28;20023;-68
2021/12/16 11:46:47;;;;;;;9.70;5.43;;;4.40;99.90;;;;;;4974299;28;20132;-68
2021/12/16 11:49:37;;;;;;;10.63;5.57;;;4.40;99.90;;;;;;4969432;28;20039;-68
2021/12/16 11:52:13;;;;;;;12.23;6.20;;;4.40;99.90;;;;;;4959745;28;20499;-68
2021/12/16 11:54:41;;;;;;;12.20;6.60;;;4.40;99.90;;;;;;4970385;28;20034;-68
2021/12/16 11:57:19;;;;;;;11.32;6.20;;;4.40;99.90;;;;;;4976522;28;20037;-68
2021/12/16 11:59:47;;;;;;;;;;;4.40;99.90;;;;;;4966085;28;20037;-68
2021/12/16 12:02:33;;;;;;;13.57;6.07;;;4.30;99.90;;;;;;4956443;28;19918;-68
2021/12/16 12:05:32;;;;;;;14.77;6.78;;;4.40;99.90;;;;;;4949545;28;20635;-68
2021/12/16 12:08:12;;;;;;;13.30;6.43;;;4.40;99.90;;;;;;4951382;28;20039;-68
2021/12/16 12:10:59;;;;;;;11.55;5.50;;;4.40;99.90;;;;;;4947134;28;20115;-68
2021/12/16 12:13:34;;;;;;;10.77;5.72;;;4.40;99.90;;;;;;4954807;28;20036;-68
2021/12/16 12:16:04;;;;;;;12.98;6.72;;;4.50;99.90;;;;;;4951002;28;20146;-68
2021/12/16 12:18:47;;;;;;;13.77;7.50;;;4.50;99.90;;;;;;4952134;28;20039;-68
2021/12/16 12:21:43;;;;;;;15.20;6.40;;;4.50;99.90;;;;;;4948122;28;20710;-68
2021/12/16 12:24:25;;;;;;;10.93;6.40;;;4.50;99.90;;;;;;4955375;28;20186;-68
2021/12/16 12:26:52;;;;;;;10.30;5.95;;;4.50;99.90;;;;;;4953379;28;20043;-68
2021/12/16 12:29:31;;;;;;;12.20;6.75;;;4.50;99.90;;;;;;4954740;28;20122;-68
2021/12/16 12:32:19;;;;;;;11.85;6.45;;;4.50;99.90;;;;;;4953013;28;20150;-69
2021/12/16 12:34:47;;;;;;;;;;;4.50;99.90;;;;;;4940299;28;20154;-68
2021/12/16 12:37:16;;;;;;;11.47;5.83;;;4.50;99.90;;;;;;4959613;28;19914;-68
2021/12/16 12:39:47;;;;;;;11.60;6.10;;;4.50;99.90;;;;;;4954060;28;20394;-68
2021/12/16 12:42:15;;;;;;;9.68;5.50;;;4.60;99.90;;;;;;4959374;28;20094;-68
2021/12/16 12:44:43;;;;;;;14.23;7.07;;;4.60;99.90;;;;;;4955682;28;20462;-68
2021/12/16 12:47:17;;;;;;;13.48;6.85;;;4.70;99.90;;;;;;4939849;28;20031;-68
2021/12/16 12:49:44;;;;;;;15.38;7.40;;;4.60;99.90;;;;;;4951076;28;20649;-68
2021/12/16 12:52:23;;;;;;;16.20;6.97;;;4.70;99.90;;;;;;4946129;28;20059;-68
2021/12/16 12:55:12;;;;;;;12.23;6.05;;;4.70;99.90;;;;;;4953802;28;20037;-68
2021/12/16 12:57:40;;;;;;;12.27;6.63;;;4.70;99.90;;;;;;4958401;28;20042;-69
2021/12/16 13:00:27;;;;;;;14.40;6.27;;;4.70;99.90;;;;;;4956073;28;20061;-68
2021/12/16 13:03:08;;;;;;;13.03;6.67;;;4.70;99.90;;;;;;4958530;28;20050;-68
2021/12/16 13:05:34;;;;;;;12.48;6.28;;;4.70;99.90;;;;;;4953019;28;20302;-68
2021/12/16 13:08:08;;;;;;;14.63;6.60;;;4.70;99.90;;;;;;4949903;28;20034;-68
2021/12/16 13:10:42;;;;;;;14.50;6.47;;;4.70;99.90;;;;;;4951141;28;20039;-68
2021/12/16 13:16:12;;;;;;;11.10;6.03;;;4.80;99.90;;;;;;4955376;28;20043;-68
2021/12/16 13:27:04;;;;;;;12.13;6.20;;;4.70;99.90;;;;;;4950433;28;20500;-68
2021/12/16 13:29:36;;;;;;;13.05;6.75;;;4.70;99.90;;;;;;4953025;28;20053;-68
2021/12/16 13:32:17;;;;;;;11.43;5.90;;;4.70;99.90;;;;;;4965807;28;20125;-68
2021/12/16 13:37:41;;;;;;;13.93;6.90;;;4.70;99.90;;;;;;4972837;28;20047;-68
2021/12/16 13:40:06;;;;;;;;;;;4.70;99.90;;;;;;4966464;28;20054;-68
2021/12/16 13:42:48;;;;;;;10.32;5.68;;;4.70;99.90;;;;;;4968803;28;20444;-68
2021/12/16 13:45:22;;;;;;;11.18;4.93;;;4.70;99.90;;;;;;4972261;28;20035;-68
2021/12/16 14:02:55;;;;;;;11.20;5.75;;;4.70;99.90;;;;;;4934935;28;20422;-68
2021/12/16 14:05:47;;;;;;;10.98;5.55;;;4.70;99.90;;;;;;4958158;28;20113;-68
2021/12/16 14:08:30;;;;;;;8.25;5.05;;;4.70;99.90;;;;;;4956847;28;20075;-68
2021/12/16 14:11:00;;;;;;;9.25;4.43;;;4.70;99.90;;;;;;4951614;28;20492;-69
2021/12/16 14:16:33;;;;;;;9.05;5.53;;;4.60;99.90;;;;;;4953787;28;20043;-68
2021/12/16 14:39:54;;;;;;;10.77;4.97;;;4.60;99.90;;;;;;4906365;29;20032;-68
2021/12/16 14:42:38;;;;;;;12.02;6.78;;;4.60;99.90;;;;;;4906583;29;20036;-68
2021/12/16 14:45:25;;;;;;;12.85;7.45;;;4.60;99.90;;;;;;4942814;28;20506;-68
2021/12/16 14:48:07;;;;;;;12.65;6.53;;;4.60;99.90;;;;;;4949751;28;20039;-68
2021/12/16 14:50:36;;;;;;;11.88;6.00;;;4.70;99.90;;;;;;4953178;28;20389;-68
2021/12/16 14:53:11;;;;;;;;;;;4.60;99.90;;;;;;4952294;28;20056;-68
2021/12/16 14:55:37;;;;;;;11.07;5.95;;;4.60;99.90;;;;;;4949045;28;19922;-68
2021/12/16 14:58:04;;;;;;;12.35;5.88;;;4.60;99.90;;;;;;4952973;28;20043;-68
2021/12/16 15:00:38;;;;;;;10.32;5.82;;;4.60;99.90;;;;;;4949212;28;20067;-68
2021/12/16 15:03:15;;;;;;;13.35;6.95;;;4.50;99.90;;;;;;4951212;28;20470;-68
2021/12/16 15:05:56;;;;;;;12.35;6.43;;;4.50;99.90;;;;;;4947640;28;20398;-68
2021/12/16 15:08:34;;;;;;;12.38;6.13;;;4.40;99.90;;;;;;4951890;28;20038;-68
2021/12/16 15:11:04;;;;;;;16.40;6.90;;;4.50;99.90;;;;;;4955487;28;20082;-68
2021/12/16 15:13:39;;;;;;;13.18;7.40;;;4.50;99.90;;;;;;4951694;28;20658;-68
2021/12/16 15:16:28;;;;;;;13.60;6.95;;;4.40;99.90;;;;;;4947479;28;20046;-68
2021/12/16 15:44:58;;;;;;;14.20;6.75;;;4.40;99.90;;;;;;4949728;28;20478;-68
2021/12/16 15:47:24;;;;;;;14.25;6.75;;;4.30;99.90;;;;;;4950765;28;20046;-68
2021/12/16 15:49:50;;;;;;;13.23;7.45;;;4.30;99.90;;;;;;4955137;28;20035;-68
2021/12/16 15:52:17;;;;;;;13.63;6.38;;;4.30;99.90;;;;;;4949551;28;20074;-69
2021/12/16 15:54:48;;;;;;;13.95;6.05;;;4.40;99.90;;;;;;4948289;28;20059;-68
2021/12/16 15:57:16;;;;;;;12.32;7.05;;;4.30;99.90;;;;;;4953286;28;20034;-68
2021/12/16 15:59:48;;;;;;;16.80;7.60;;;4.20;99.90;;;;;;4954127;28;20118;-68
2021/12/16 16:02:18;;;;;;;15.05;6.68;;;4.10;99.90;;;;;;4950094;28;20043;-68
2021/12/16 16:04:44;;;;;;;12.30;6.45;;;4.10;99.90;;;;;;4954922;28;20015;-68
2021/12/16 16:07:13;;;;;;;15.20;7.25;;;4.10;99.90;;;;;;4948401;28;20933;-68
2021/12/16 16:09:40;;;;;;;;;;;4.20;99.90;;;;;;4949983;28;20035;-68
2021/12/16 16:12:11;;;;;;;15.02;6.90;;;4.10;99.90;;;;;;4952327;28;19925;-68
2021/12/16 16:14:39;;;;;;;17.77;7.85;;;4.20;99.90;;;;;;4958971;28;20043;-68
2021/12/16 16:17:13;;;;;;;14.02;6.20;;;4.20;99.90;;;;;;4954660;28;20069;-68
2021/12/16 16:19:40;;;;;;;12.95;7.50;;;4.20;99.90;;;;;;4960008;28;20394;-68
2021/12/16 16:22:07;;;;;;;14.57;6.47;;;4.20;99.90;;;;;;4957150;28;20542;-68
2021/12/16 16:24:34;;;;;;;12.85;6.57;;;4.20;99.90;;;;;;4953534;28;20403;-68
2021/12/16 16:27:04;;;;;;;11.00;5.95;;;4.10;99.90;;;;;;4954256;28;20030;-69
2021/12/16 16:29:32;;;;;;;13.32;6.15;;;4.10;99.90;;;;;;4947049;28;20028;-68
2021/12/16 16:31:58;;;;;;;11.98;6.38;;;4.10;99.90;;;;;;4958424;28;20039;-68
2021/12/16 16:34:30;;;;;;;12.48;6.50;;;4.10;99.90;;;;;;4956755;28;20031;-68
2021/12/16 16:37:00;;;;;;;11.50;6.43;;;4.10;99.90;;;;;;4955124;28;20046;-68
2021/12/16 16:39:35;;;;;;;12.85;6.80;;;4.10;99.90;;;;;;4954999;28;20459;-68
2021/12/16 16:42:05;;;;;;;14.52;6.95;;;4.10;99.90;;;;;;4955465;28;20046;-68
2021/12/16 16:44:31;;;;;;;13.88;6.65;;;4.00;99.90;;;;;;4958043;28;20027;-68
2021/12/16 16:47:09;;;;;;;15.68;7.72;;;4.00;99.90;;;;;;4948440;28;20047;-68
2021/12/16 16:49:48;;;;;;;16.02;7.32;;;4.00;99.90;;;;;;4948509;28;20502;-68
2021/12/16 16:52:22;;;;;;;16.65;7.75;;;3.90;99.90;;;;;;4956383;28;20055;-68
2021/12/16 16:55:09;;;;;;;15.10;8.68;;;3.70;99.90;;;;;;4951850;28;20058;-68
2021/12/16 16:57:48;;;;;;;14.95;8.52;;;3.60;99.90;;;;;;4958536;28;20063;-68
2021/12/16 17:00:43;;;;;;;14.57;7.95;;;3.50;99.90;;;;;;4953151;28;20034;-68
2021/12/16 17:03:12;;;;;;;20.15;9.77;;;3.60;99.90;;;;;;4969227;28;20121;-68